createdAt,value
2018-03-26T00:00:51.725Z,42.20
2018-03-26T00:03:19.238Z,39.60
2018-03-26T00:05:47.469Z,38.77
2018-03-26T00:08:14.928Z,43.57
2018-03-26T00:10:42.992Z,40.67
2018-03-26T00:13:10.480Z,42.73
2018-03-26T00:15:38.701Z,40.10
2018-03-26T00:18:06.186Z,42.80
2018-03-26T00:20:34.432Z,40.83
2018-03-26T00:23:01.917Z,38.83
2018-03-26T00:25:29.361Z,38.10
2018-03-26T00:27:56.834Z,39.50
2018-03-26T00:30:24.300Z,39.20
2018-03-26T00:32:51.782Z,45.03
2018-03-26T00:35:20.024Z,38.47
2018-03-26T00:37:47.512Z,42.97
2018-03-26T00:40:15.754Z,39.33
2018-03-26T00:42:43.201Z,42.20
2018-03-26T00:45:10.660Z,43.03
2018-03-26T00:47:38.121Z,46.03
2018-03-26T00:50:05.596Z,39.87
2018-03-26T00:52:33.073Z,39.43
2018-03-26T00:55:01.288Z,39.83
2018-03-26T00:57:28.757Z,42.93
2018-03-26T00:59:56.233Z,38.50
2018-03-26T01:02:25.598Z,39.10
2018-03-26T01:04:53.077Z,44.27
2018-03-26T01:07:20.566Z,38.87
2018-03-26T01:09:48.032Z,39.67
2018-03-26T01:12:16.281Z,39.80
2018-03-26T01:14:43.748Z,41.87
2018-03-26T01:17:11.213Z,38.50
2018-03-26T01:19:39.434Z,42.27
2018-03-26T01:22:06.897Z,44.27
2018-03-26T01:24:35.124Z,40.67
2018-03-26T01:27:03.374Z,39.57
2018-03-26T01:29:30.837Z,42.40
2018-03-26T01:31:58.293Z,42.33
2018-03-26T01:34:25.766Z,39.83
2018-03-26T01:36:53.237Z,41.57
2018-03-26T01:39:21.478Z,36.67
2018-03-26T01:41:48.932Z,44.40
2018-03-26T01:44:16.389Z,43.80
2018-03-26T01:46:43.882Z,39.83
2018-03-26T01:49:12.116Z,41.47
2018-03-26T01:51:39.569Z,42.27
2018-03-26T01:54:07.045Z,45.03
2018-03-26T01:56:34.512Z,45.70
2018-03-26T01:59:02.731Z,42.57
2018-03-26T02:01:30.205Z,43.63
2018-03-26T02:03:57.674Z,46.37
2018-03-26T02:06:25.129Z,44.13
2018-03-26T02:08:52.581Z,44.90
2018-03-26T02:11:20.070Z,50.00
2018-03-26T02:13:48.282Z,53.00
2018-03-26T02:16:15.773Z,47.57
2018-03-26T02:18:43.249Z,44.40
2018-03-26T02:21:10.857Z,48.57
2018-03-26T02:23:38.305Z,43.77
2018-03-26T02:26:05.777Z,46.53
2018-03-26T02:28:33.230Z,47.60
2018-03-26T02:31:00.685Z,43.47
2018-03-26T02:33:28.145Z,49.00
2018-03-26T02:35:55.645Z,47.03
2018-03-26T02:38:23.102Z,51.83
2018-03-26T02:40:50.550Z,52.50
2018-03-26T02:43:18.009Z,53.43
2018-03-26T02:45:45.457Z,55.37
2018-03-26T02:48:12.964Z,57.37
2018-03-26T02:50:40.480Z,56.33
2018-03-26T02:53:07.929Z,57.43
2018-03-26T02:55:35.413Z,58.27
2018-03-26T02:58:03.621Z,56.00
2018-03-26T03:00:31.100Z,56.63
2018-03-26T03:02:58.575Z,60.23
2018-03-26T03:05:26.811Z,59.83
2018-03-26T03:07:54.291Z,63.60
2018-03-26T03:10:21.784Z,59.23
2018-03-26T03:12:49.255Z,63.87
2018-03-26T03:15:17.476Z,67.67
2018-03-26T03:17:44.924Z,63.03
2018-03-26T03:20:12.391Z,64.43
2018-03-26T03:22:39.848Z,66.63
2018-03-26T03:25:07.315Z,70.07
2018-03-26T03:27:34.793Z,72.77
2018-03-26T03:30:02.249Z,74.63
2018-03-26T03:32:29.709Z,80.20
2018-03-26T03:34:57.195Z,86.93
2018-03-26T03:37:24.648Z,81.47
2018-03-26T03:39:52.138Z,88.93
2018-03-26T03:42:19.591Z,91.83
2018-03-26T03:44:47.065Z,84.23
2018-03-26T03:47:16.069Z,98.57
2018-03-26T03:49:44.273Z,93.57
2018-03-26T03:52:12.533Z,99.23
2018-03-26T03:54:40.019Z,95.13
2018-03-26T03:57:08.253Z,99.77
2018-03-26T03:59:35.710Z,98.33
2018-03-26T04:02:03.155Z,104.90
2018-03-26T04:04:30.637Z,102.07
2018-03-26T04:06:58.084Z,99.37
2018-03-26T04:09:25.540Z,107.40
2018-03-26T04:11:52.996Z,107.63
2018-03-26T04:14:20.473Z,101.90
2018-03-26T04:16:48.687Z,99.43
2018-03-26T04:19:16.177Z,105.83
2018-03-26T04:21:43.626Z,102.17
2018-03-26T04:24:11.082Z,107.03
2018-03-26T04:26:38.536Z,105.40
2018-03-26T04:29:06.784Z,107.57
2018-03-26T04:31:34.248Z,107.30
2018-03-26T04:34:01.694Z,106.70
2018-03-26T04:36:29.158Z,108.70
2018-03-26T04:38:56.623Z,105.43
2018-03-26T04:41:24.072Z,109.70
2018-03-26T04:43:51.556Z,113.53
2018-03-26T04:46:19.022Z,110.80
2018-03-26T04:48:46.513Z,102.13
2018-03-26T04:51:14.730Z,106.63
2018-03-26T04:53:42.219Z,107.00
2018-03-26T04:56:09.677Z,102.97
2018-03-26T04:58:38.937Z,113.27
2018-03-26T05:01:06.385Z,110.13
2018-03-26T05:03:36.763Z,108.63
2018-03-26T05:06:04.241Z,111.30
2018-03-26T05:08:32.453Z,120.70
2018-03-26T05:10:59.916Z,116.87
2018-03-26T05:13:27.401Z,101.70
2018-03-26T05:15:54.850Z,104.23
2018-03-26T05:18:22.294Z,96.50
2018-03-26T05:20:49.770Z,105.37
2018-03-26T05:23:17.242Z,101.67
2018-03-26T05:25:45.492Z,107.67
2018-03-26T05:28:12.960Z,97.30
2018-03-26T05:30:41.189Z,95.70
2018-03-26T05:33:08.633Z,93.03
2018-03-26T05:35:36.110Z,105.63
2018-03-26T05:38:03.562Z,89.53
2018-03-26T05:40:31.058Z,82.33
2018-03-26T05:42:58.782Z,87.00
2018-03-26T05:45:26.249Z,86.43
2018-03-26T05:47:53.791Z,90.57
2018-03-26T05:50:21.239Z,78.13
2018-03-26T05:52:48.725Z,93.70
2018-03-26T05:55:16.178Z,88.17
2018-03-26T05:57:43.616Z,87.90
2018-03-26T06:00:11.688Z,81.27
2018-03-26T06:02:39.143Z,84.43
2018-03-26T06:05:06.641Z,89.50
2018-03-26T06:07:34.109Z,80.03
2018-03-26T06:10:01.573Z,82.33
2018-03-26T06:12:29.020Z,83.67
2018-03-26T06:14:56.489Z,83.80
2018-03-26T06:17:23.973Z,84.63
2018-03-26T06:19:51.470Z,83.03
2018-03-26T06:22:18.933Z,109.70
2018-03-26T06:24:46.381Z,76.50
2018-03-26T06:27:13.841Z,76.77
2018-03-26T06:29:41.292Z,78.77
2018-03-26T06:32:08.754Z,79.20
2018-03-26T06:34:36.269Z,82.73
2018-03-26T06:40:05.622Z,80.10
2018-03-26T06:42:33.064Z,77.30
2018-03-26T06:45:00.523Z,78.00
2018-03-26T06:47:27.996Z,75.90
2018-03-26T06:49:55.467Z,73.03
2018-03-26T06:52:22.912Z,86.03
2018-03-26T06:54:50.365Z,82.07
2018-03-26T06:57:17.853Z,78.03
2018-03-26T06:59:45.316Z,71.63
2018-03-26T07:02:12.768Z,79.53
2018-03-26T07:04:40.252Z,84.17
2018-03-26T07:07:08.485Z,73.40
2018-03-26T07:09:35.998Z,85.97
2018-03-26T07:12:03.436Z,76.93
2018-03-26T07:14:31.676Z,82.77
2018-03-26T07:16:59.153Z,77.67
2018-03-26T07:19:27.381Z,83.30
2018-03-26T07:21:54.841Z,87.60
2018-03-26T07:24:22.341Z,80.43
2018-03-26T07:26:49.823Z,84.83
2018-03-26T07:29:17.309Z,81.30
2018-03-26T07:31:44.762Z,88.93
2018-03-26T07:34:12.208Z,79.97
2018-03-26T07:36:39.673Z,81.43
2018-03-26T07:39:07.145Z,78.57
2018-03-26T07:41:34.678Z,102.17
2018-03-26T07:44:02.144Z,83.20
2018-03-26T07:46:29.589Z,78.07
2018-03-26T07:48:57.105Z,84.93
2018-03-26T07:51:24.609Z,77.63
2018-03-26T07:53:52.108Z,80.80
2018-03-26T07:56:19.608Z,75.33
2018-03-26T07:58:47.080Z,89.27
2018-03-26T08:01:14.556Z,80.97
2018-03-26T08:03:42.026Z,84.43
2018-03-26T08:06:09.485Z,83.47
2018-03-26T08:08:36.961Z,83.17
2018-03-26T08:11:04.442Z,86.03
2018-03-26T08:13:32.657Z,77.37
2018-03-26T08:16:00.122Z,76.27
2018-03-26T08:18:27.602Z,83.90
2018-03-26T08:20:56.446Z,78.33
2018-03-26T08:23:23.940Z,80.00
2018-03-26T08:25:51.413Z,79.37
2018-03-26T08:28:18.888Z,84.10
2018-03-26T08:30:47.129Z,82.90
2018-03-26T08:33:14.579Z,94.10
2018-03-26T08:35:42.033Z,102.43
2018-03-26T08:38:09.510Z,88.33
2018-03-26T08:40:36.985Z,98.07
2018-03-26T08:43:05.238Z,96.83
2018-03-26T08:45:32.747Z,100.17
2018-03-26T08:48:00.236Z,102.83
2018-03-26T08:50:27.716Z,112.33
2018-03-26T08:52:58.509Z,104.73
2018-03-26T08:55:26.023Z,105.03
2018-03-26T08:57:54.290Z,108.67
2018-03-26T09:00:22.610Z,109.87
2018-03-26T09:02:50.169Z,108.90
2018-03-26T09:05:21.080Z,107.67
2018-03-26T09:07:49.338Z,105.37
2018-03-26T09:10:17.576Z,100.80
2018-03-26T09:12:45.047Z,108.43
2018-03-26T09:15:12.541Z,100.70
2018-03-26T09:17:40.756Z,99.70
2018-03-26T09:20:08.215Z,97.00
2018-03-26T09:22:35.690Z,84.43
2018-03-26T09:25:03.177Z,89.37
2018-03-26T09:27:31.420Z,93.53
2018-03-26T09:29:59.111Z,92.70
2018-03-26T09:32:26.567Z,90.40
2018-03-26T09:34:54.022Z,87.20
2018-03-26T09:37:21.496Z,85.53
2018-03-26T09:39:49.747Z,85.93
2018-03-26T09:42:17.255Z,72.17
2018-03-26T09:44:44.727Z,83.63
2018-03-26T09:47:12.200Z,73.37
2018-03-26T09:49:40.452Z,68.07
2018-03-26T09:52:07.929Z,65.63
2018-03-26T09:54:35.443Z,72.43
2018-03-26T09:57:02.929Z,63.77
2018-03-26T09:59:30.414Z,59.00
2018-03-26T10:01:57.889Z,60.60
2018-03-26T10:04:25.420Z,69.10
2018-03-26T10:06:52.975Z,66.77
2018-03-26T10:09:20.435Z,64.57
2018-03-26T10:11:47.905Z,69.47
2018-03-26T10:14:15.375Z,59.23
2018-03-26T10:16:42.837Z,41.70
2018-03-26T10:19:11.073Z,40.70
2018-03-26T10:21:38.588Z,54.47
2018-03-26T10:24:06.080Z,51.63
2018-03-26T10:26:33.544Z,51.60
2018-03-26T10:29:00.994Z,44.70
2018-03-26T10:31:28.469Z,44.97
2018-03-26T10:33:55.952Z,47.93
2018-03-26T10:36:24.211Z,31.47
2018-03-26T10:38:51.689Z,35.37
2018-03-26T10:41:19.160Z,35.73
2018-03-26T10:43:46.643Z,43.33
2018-03-26T10:46:14.113Z,44.33
2018-03-26T10:48:41.574Z,33.97
2018-03-26T10:51:09.058Z,35.63
2018-03-26T10:53:36.507Z,32.83
2018-03-26T10:56:03.977Z,27.70
2018-03-26T10:58:31.482Z,20.47
2018-03-26T11:00:58.927Z,22.23
2018-03-26T11:03:26.377Z,28.47
2018-03-26T11:05:53.834Z,30.73
2018-03-26T11:08:21.277Z,23.23
2018-03-26T11:10:49.563Z,18.10
2018-03-26T11:13:17.023Z,15.90
2018-03-26T11:15:44.486Z,11.33
2018-03-26T11:18:11.965Z,15.00
2018-03-26T11:20:39.437Z,17.47
2018-03-26T11:23:06.920Z,19.50
2018-03-26T11:25:34.396Z,17.20
2018-03-26T11:28:01.932Z,18.03
2018-03-26T11:30:29.443Z,21.50
2018-03-26T11:32:56.979Z,20.20
2018-03-26T11:35:24.544Z,16.13
2018-03-26T11:37:52.120Z,15.30
2018-03-26T11:40:19.718Z,17.03
2018-03-26T11:42:47.255Z,13.37
2018-03-26T11:45:14.787Z,10.33
2018-03-26T11:47:42.378Z,12.23
2018-03-26T11:50:09.931Z,15.80
2018-03-26T11:52:37.485Z,10.23
2018-03-26T11:55:05.053Z,13.43
2018-03-26T11:57:32.648Z,9.50
2018-03-26T12:00:00.964Z,10.67
2018-03-26T12:02:28.486Z,6.73
2018-03-26T12:04:56.745Z,11.23
2018-03-26T12:07:24.215Z,8.20
2018-03-26T12:09:51.665Z,7.63
2018-03-26T12:12:19.121Z,9.63
2018-03-26T12:14:46.585Z,9.47
2018-03-26T12:17:14.056Z,7.37
2018-03-26T12:22:48.462Z,8.37
2018-03-26T12:25:17.796Z,6.17
2018-03-26T12:27:57.063Z,7.57
2018-03-26T12:30:25.354Z,5.57
2018-03-26T12:32:53.566Z,8.33
2018-03-26T12:35:33.550Z,6.10
2018-03-26T12:38:01.013Z,11.70
2018-03-26T12:40:40.729Z,6.47
2018-03-26T12:43:08.189Z,8.20
2018-03-26T12:45:48.220Z,9.03
2018-03-26T12:48:15.673Z,7.73
2018-03-26T12:50:54.843Z,8.80
2018-03-26T12:53:22.289Z,7.43
2018-03-26T12:55:49.724Z,8.90
2018-03-26T12:58:29.942Z,8.93
2018-03-26T13:01:09.341Z,4.67
2018-03-26T13:03:36.793Z,5.63
2018-03-26T13:06:04.279Z,7.73
2018-03-26T13:08:31.746Z,4.20
2018-03-26T13:10:59.274Z,4.33
2018-03-26T13:13:26.734Z,6.90
2018-03-26T13:15:54.177Z,6.63
2018-03-26T13:18:21.628Z,7.63
2018-03-26T13:20:49.909Z,5.73
2018-03-26T13:23:17.386Z,3.80
2018-03-26T13:25:44.885Z,5.03
2018-03-26T13:28:12.375Z,7.73
2018-03-26T13:30:40.600Z,5.70
2018-03-26T13:33:08.052Z,5.80
2018-03-26T13:35:35.522Z,7.93
2018-03-26T13:38:02.975Z,9.50
2018-03-26T13:40:30.456Z,4.37
2018-03-26T13:42:57.965Z,3.97
2018-03-26T13:45:25.499Z,5.47
2018-03-26T13:47:53.783Z,6.17
2018-03-26T13:50:21.266Z,4.83
2018-03-26T13:52:49.520Z,11.83
2018-03-26T13:55:17.008Z,8.57
2018-03-26T13:57:44.478Z,6.40
2018-03-26T14:00:11.960Z,5.80
2018-03-26T14:02:40.206Z,5.47
2018-03-26T14:05:07.667Z,6.00
2018-03-26T14:07:35.134Z,3.27
2018-03-26T14:10:14.368Z,4.23
2018-03-26T14:12:53.711Z,4.33
2018-03-26T14:15:33.210Z,7.57
2018-03-26T14:18:00.727Z,6.03
2018-03-26T14:20:28.953Z,10.53
2018-03-26T14:22:56.426Z,9.03
2018-03-26T14:25:23.896Z,5.57
2018-03-26T14:27:51.377Z,9.17
2018-03-26T14:30:19.602Z,5.87
2018-03-26T14:32:47.074Z,3.70
2018-03-26T14:38:28.144Z,7.00
2018-03-26T14:40:55.588Z,4.90
2018-03-26T14:43:23.051Z,3.90
2018-03-26T14:45:50.537Z,4.73
2018-03-26T14:48:17.988Z,1.50
2018-03-26T14:50:45.429Z,1.73
2018-03-26T14:53:12.885Z,1.87
2018-03-26T14:55:40.345Z,2.17
2018-03-26T14:58:07.811Z,3.80
2018-03-26T15:00:35.274Z,3.03
2018-03-26T15:03:02.741Z,3.17
2018-03-26T15:05:30.184Z,2.70
2018-03-26T15:07:57.664Z,2.47
2018-03-26T15:10:25.905Z,1.17
2018-03-26T15:12:53.357Z,4.03
2018-03-26T15:15:20.831Z,3.67
2018-03-26T15:17:48.274Z,2.90
2018-03-26T15:20:15.753Z,3.47
2018-03-26T15:22:43.224Z,3.23
2018-03-26T15:25:11.450Z,4.77
2018-03-26T15:27:38.899Z,2.23
2018-03-26T15:30:06.363Z,2.97
2018-03-26T15:32:33.809Z,5.37
2018-03-26T15:35:01.321Z,2.50
2018-03-26T15:37:29.573Z,6.77
2018-03-26T15:39:57.008Z,4.67
2018-03-26T15:42:24.469Z,2.80
2018-03-26T15:44:52.419Z,3.23
2018-03-26T15:47:19.891Z,3.70
2018-03-26T15:49:47.363Z,4.07
2018-03-26T15:52:14.830Z,2.53
2018-03-26T15:54:42.289Z,2.67
2018-03-26T15:57:09.793Z,2.43
2018-03-26T15:59:37.245Z,1.80
2018-03-26T16:02:04.222Z,4.63
2018-03-26T16:04:31.688Z,2.57
2018-03-26T16:06:59.150Z,2.53
2018-03-26T16:09:26.636Z,4.93
2018-03-26T16:11:54.098Z,3.93
2018-03-26T16:14:22.352Z,2.93
2018-03-26T16:16:49.866Z,2.27
2018-03-26T16:19:17.353Z,2.90
2018-03-26T16:21:44.931Z,4.57
2018-03-26T16:24:13.245Z,3.10
2018-03-26T16:26:40.759Z,4.80
2018-03-26T16:29:08.204Z,1.83
2018-03-26T16:31:35.690Z,4.63
2018-03-26T16:34:03.153Z,3.83
2018-03-26T16:36:31.404Z,3.50
2018-03-26T16:38:58.903Z,4.30
2018-03-26T16:41:38.363Z,4.07
2018-03-26T16:44:05.852Z,3.93
2018-03-26T16:46:33.338Z,3.57
2018-03-26T16:49:00.851Z,3.17
2018-03-26T16:51:28.494Z,3.30
2018-03-26T16:53:56.006Z,4.27
2018-03-26T16:56:23.479Z,5.53
2018-03-26T16:58:51.734Z,5.30
2018-03-26T17:01:19.264Z,7.27
2018-03-26T17:03:46.772Z,4.03
2018-03-26T17:06:15.198Z,5.07
2018-03-26T17:08:42.702Z,3.70
2018-03-26T17:11:12.081Z,3.17
2018-03-26T17:13:40.393Z,8.17
2018-03-26T17:16:07.923Z,4.07
2018-03-26T17:18:35.454Z,3.63
2018-03-26T17:21:02.935Z,6.20
2018-03-26T17:23:30.439Z,4.30
2018-03-26T17:25:58.793Z,5.37
2018-03-26T17:28:27.038Z,8.10
2018-03-26T17:30:54.531Z,5.60
2018-03-26T17:33:22.770Z,5.97
2018-03-26T17:35:50.284Z,8.50
2018-03-26T17:38:17.789Z,5.50
2018-03-26T17:40:47.530Z,5.80
2018-03-26T17:43:15.791Z,6.57
2018-03-26T17:45:44.704Z,6.63
2018-03-26T17:48:13.518Z,10.57
2018-03-26T17:50:41.990Z,7.77
2018-03-26T17:53:09.477Z,9.00
2018-03-26T17:55:37.640Z,11.40
2018-03-26T17:58:05.186Z,9.90
2018-03-26T18:00:32.679Z,151.90
2018-03-26T18:03:00.189Z,92.53
2018-03-26T18:05:27.713Z,36.33
2018-03-26T18:07:56.029Z,7.17
2018-03-26T18:10:23.951Z,12.63
2018-03-26T18:12:51.526Z,11.93
2018-03-26T18:15:20.494Z,7.30
2018-03-26T18:17:47.990Z,11.40
2018-03-26T18:20:16.884Z,10.30
2018-03-26T18:22:45.195Z,8.60
2018-03-26T18:25:12.734Z,6.43
2018-03-26T18:27:41.600Z,6.30
2018-03-26T18:30:09.836Z,7.60
2018-03-26T18:32:37.366Z,10.67
2018-03-26T18:35:04.854Z,11.47
2018-03-26T18:37:32.437Z,8.00
2018-03-26T18:40:02.802Z,7.07
2018-03-26T18:42:31.184Z,9.27
2018-03-26T18:44:59.285Z,9.80
2018-03-26T18:47:27.412Z,9.47
2018-03-26T18:49:55.659Z,9.53
2018-03-26T18:52:25.196Z,9.07
2018-03-26T18:54:53.063Z,11.47
2018-03-26T18:57:20.620Z,10.93
2018-03-26T18:59:48.168Z,7.93
2018-03-26T19:02:16.499Z,13.27
2018-03-26T19:04:46.755Z,9.70
2018-03-26T19:07:15.907Z,8.20
2018-03-26T19:09:44.883Z,8.63
2018-03-26T19:12:14.005Z,10.90
2018-03-26T19:14:41.836Z,11.47
2018-03-26T19:17:09.366Z,18.77
2018-03-26T19:19:38.420Z,14.97
2018-03-26T19:22:06.845Z,16.73
2018-03-26T19:24:35.361Z,15.97
2018-03-26T19:27:03.706Z,17.93
2018-03-26T19:29:31.258Z,14.67
2018-03-26T19:31:59.670Z,10.17
2018-03-26T19:34:27.175Z,11.97
2018-03-26T19:37:00.741Z,8.53
2018-03-26T19:39:28.263Z,10.53
2018-03-26T19:41:56.532Z,8.73
2018-03-26T19:44:24.060Z,12.77
2018-03-26T19:46:53.927Z,11.50
2018-03-26T19:49:22.802Z,13.30
2018-03-26T19:51:50.351Z,9.60
2018-03-26T19:54:17.877Z,14.30
2018-03-26T19:56:47.623Z,11.90
2018-03-26T19:59:15.412Z,19.73
2018-03-26T20:01:44.690Z,9.67
2018-03-26T20:04:13.124Z,10.00
2018-03-26T20:06:46.035Z,8.93
2018-03-26T20:09:17.907Z,8.80
2018-03-26T20:11:45.389Z,6.87
2018-03-26T20:14:14.356Z,8.47
2018-03-26T20:16:41.878Z,8.90
2018-03-26T20:19:10.126Z,7.23
2018-03-26T20:21:41.659Z,11.57
2018-03-26T20:24:09.166Z,12.87
2018-03-26T20:26:39.980Z,10.37
2018-03-26T20:29:08.416Z,16.50
2018-03-26T20:31:35.929Z,13.83
2018-03-26T20:34:03.500Z,9.93
2018-03-26T20:36:33.108Z,11.30
2018-03-26T20:39:02.388Z,13.27
2018-03-26T20:41:33.966Z,10.80
2018-03-26T20:44:03.984Z,16.77
2018-03-26T20:46:35.451Z,10.53
2018-03-26T20:49:04.621Z,10.77
2018-03-26T20:51:33.055Z,9.27
2018-03-26T20:54:01.495Z,12.20
2018-03-26T20:56:30.629Z,7.50
2018-03-26T20:58:59.210Z,12.00
2018-03-26T21:01:27.090Z,11.03
2018-03-26T21:03:55.518Z,14.53
2018-03-26T21:06:25.681Z,9.37
2018-03-26T21:08:53.905Z,12.37
2018-03-26T21:11:21.400Z,11.93
2018-03-26T21:13:48.919Z,14.40
2018-03-26T21:16:16.425Z,12.97
2018-03-26T21:18:44.547Z,14.53
2018-03-26T21:21:13.591Z,13.07
2018-03-26T21:23:41.563Z,11.70
2018-03-26T21:26:10.067Z,10.53
2018-03-26T21:28:37.574Z,11.00
2018-03-26T21:31:05.874Z,13.33
2018-03-26T21:33:34.483Z,12.50
2018-03-26T21:36:02.401Z,12.23
2018-03-26T21:38:31.035Z,12.50
2018-03-26T21:41:00.189Z,11.30
2018-03-26T21:43:27.697Z,12.97
2018-03-26T21:45:55.968Z,10.67
2018-03-26T21:48:23.486Z,13.00
2018-03-26T21:50:50.984Z,14.40
2018-03-26T21:53:19.063Z,23.77
2018-03-26T21:55:46.581Z,13.73
2018-03-26T21:58:14.126Z,17.37
2018-03-26T22:00:41.643Z,12.50
2018-03-26T22:03:09.134Z,11.70
2018-03-26T22:05:37.782Z,16.03
2018-03-26T22:08:06.110Z,19.33
2018-03-26T22:10:33.607Z,18.33
2018-03-26T22:13:01.121Z,18.80
2018-03-26T22:15:28.615Z,22.73
2018-03-26T22:17:56.103Z,18.43
2018-03-26T22:20:23.577Z,17.27
2018-03-26T22:22:51.820Z,17.00
2018-03-26T22:25:19.292Z,19.57
2018-03-26T22:27:46.755Z,21.03
2018-03-26T22:30:14.582Z,18.77
2018-03-26T22:32:42.056Z,22.37
2018-03-26T22:35:09.521Z,16.93
2018-03-26T22:37:37.013Z,18.07
2018-03-26T22:40:04.446Z,23.07
2018-03-26T22:42:32.694Z,16.70
2018-03-26T22:45:00.149Z,19.80
2018-03-26T22:47:27.622Z,28.37
2018-03-26T22:49:55.080Z,15.53
2018-03-26T22:52:22.549Z,18.43
2018-03-26T22:54:50.778Z,18.17
2018-03-26T22:57:18.247Z,18.60
2018-03-26T22:59:45.726Z,19.73
2018-03-26T23:02:13.179Z,21.67
2018-03-26T23:04:40.628Z,21.50
2018-03-26T23:07:08.842Z,21.60
2018-03-26T23:09:37.084Z,17.57
2018-03-26T23:12:04.553Z,17.93
2018-03-26T23:14:31.997Z,22.20
2018-03-26T23:16:59.481Z,19.37
2018-03-26T23:19:27.716Z,16.80
2018-03-26T23:21:55.186Z,16.90
2018-03-26T23:24:22.677Z,16.43
2018-03-26T23:26:50.905Z,18.40
2018-03-26T23:29:18.371Z,21.97
2018-03-26T23:31:45.849Z,19.27
2018-03-26T23:34:14.066Z,18.23
2018-03-26T23:36:41.533Z,18.47
2018-03-26T23:39:08.980Z,21.40
2018-03-26T23:41:36.458Z,20.70
2018-03-26T23:44:03.932Z,17.93
2018-03-26T23:46:31.399Z,19.73
2018-03-26T23:48:58.870Z,20.17
2018-03-26T23:51:27.092Z,18.43
2018-03-26T23:53:54.559Z,22.10
2018-03-26T23:56:22.010Z,18.37
2018-03-26T23:58:49.474Z,19.00
